»·PEaware :: N884WL KSBA-KSNA

N884WL :: KSBA-KSNA

FLIGHT INFORMATION

Flight Status: Arrived
Operator: Privately registered:
United States
More flights under this callsign
Pilot: Joe C. (19058)
Aircraft: ECLIPSE 500
(EA50)
More flights by this aircraft type
Origin: KSBA Santa Barbara Mun
United States
Destination: KSNA John Wayne-Orange Co
United States
More flights between these airports :: More routes between these airports
Route: +KWANG VTU V208 SXC SLI
File this flight plan on PilotEdge
Remarks: SBAP8
Altitude:
(Current/Filed)
11,000ft
Speed:
(Current/Filed)
340kts
Departed: 11-Oct-18 06:35 PM
Arrived: 11-Oct-18 07:20 PM
Distance/Time
Traveled:
108nm/0:45
Distance/Time
To Go:
Arrived

Flight Plot

Page will automatically refresh every two minutes.


Map Options




Map Legend


Flown Route
Filed Route
Departure Airport
Arrival Airport
Navaid (VOR, NDB)
Fix

Horizontal Profiles

Position Reports

Time Latitude Longitude Heading Altitude Ground
Speed
11-Oct-18 18:24 34.432564 -119.835105 71 13ft 0kts
11-Oct-18 18:25 34.432564 -119.835105 71 13ft 0kts
11-Oct-18 18:26 34.432564 -119.835105 71 13ft 0kts
11-Oct-18 18:27 34.432564 -119.835105 71 13ft 0kts
11-Oct-18 18:28 34.432564 -119.835105 71 13ft 0kts
11-Oct-18 18:29 34.432564 -119.835105 71 13ft 0kts
11-Oct-18 18:30 34.432564 -119.835105 71 13ft 0kts
11-Oct-18 18:31 34.432564 -119.835105 71 13ft 0kts
11-Oct-18 18:32 34.432331 -119.835193 228 13ft 0kts
11-Oct-18 18:33 34.431941 -119.835525 142 13ft 4kts
11-Oct-18 18:34 34.429289 -119.835311 181 10ft 8kts
11-Oct-18 18:35 34.428781 -119.834683 177 9ft 0kts
11-Oct-18 18:36 34.428519 -119.834691 185 9ft 10kts
11-Oct-18 18:37 34.427423 -119.855994 266 382ft 155kts
11-Oct-18 18:38 34.425785 -119.913518 266 2952ft 182kts
11-Oct-18 18:39 34.424025 -119.973257 266 3000ft 177kts
11-Oct-18 18:40 34.422258 -120.033144 266 3000ft 178kts
11-Oct-18 18:41 34.393372 -120.051986 119 3948ft 184kts
11-Oct-18 18:42 34.393692 -119.990873 92 6958ft 187kts
11-Oct-18 18:43 34.387547 -119.918358 99 8004ft 262kts
11-Oct-18 18:44 34.373361 -119.830510 102 10814ft 264kts
11-Oct-18 18:45 34.351845 -119.720062 103 11002ft 308kts
11-Oct-18 18:46 34.333964 -119.633017 104 11000ft 318kts
11-Oct-18 18:47 34.312283 -119.529279 104 10995ft 319kts
11-Oct-18 18:48 34.274860 -119.432693 116 10992ft 318kts
11-Oct-18 18:49 34.235428 -119.337151 117 10990ft 318kts
11-Oct-18 18:50 34.195447 -119.241192 117 11124ft 326kts
11-Oct-18 18:51 34.155269 -119.145179 117 10992ft 319kts
11-Oct-18 18:52 34.105214 -119.061042 162 10991ft 316kts
11-Oct-18 18:53 34.018644 -119.042539 172 10999ft 316kts
11-Oct-18 18:54 33.931177 -119.030983 174 10999ft 316kts
11-Oct-18 18:55 33.843773 -119.021218 175 10999ft 316kts
11-Oct-18 18:56 33.768790 -118.975638 133 10996ft 317kts
11-Oct-18 18:57 33.710147 -118.896907 131 10985ft 316kts
11-Oct-18 18:58 33.655034 -118.815454 115 10925ft 315kts
11-Oct-18 18:59 33.650249 -118.723930 91 8906ft 271kts
11-Oct-18 19:00 33.649129 -118.634370 91 6917ft 259kts
11-Oct-18 19:01 33.648315 -118.551300 91 5050ft 225kts
11-Oct-18 19:02 33.647601 -118.469730 91 4986ft 254kts
11-Oct-18 19:03 33.647020 -118.384619 91 4979ft 255kts
11-Oct-18 19:04 33.646605 -118.298036 91 4971ft 267kts
11-Oct-18 19:05 33.646006 -118.209008 91 5001ft 267kts
11-Oct-18 19:06 33.645053 -118.120328 91 5004ft 266kts
11-Oct-18 19:07 33.643718 -118.031776 91 4999ft 264kts
11-Oct-18 19:08 33.655188 -117.949302 36 4969ft 252kts
11-Oct-18 19:09 33.710736 -117.906993 31 3072ft 220kts
11-Oct-18 19:10 33.760580 -117.873693 21 3002ft 214kts
11-Oct-18 19:11 33.810115 -117.848964 21 2997ft 178kts
11-Oct-18 19:12 33.853779 -117.826765 21 3005ft 179kts
11-Oct-18 19:13 33.902047 -117.801981 21 3002ft 193kts
11-Oct-18 19:14 33.915456 -117.753689 111 3006ft 180kts
11-Oct-18 19:15 33.884515 -117.729022 216 3288ft 148kts
11-Oct-18 19:16 33.847198 -117.757678 211 3361ft 164kts
11-Oct-18 19:17 33.807330 -117.784737 209 2788ft 164kts
11-Oct-18 19:18 33.767216 -117.810650 208 1972ft 163kts
11-Oct-18 19:19 33.730634 -117.833938 208 1164ft 127kts
11-Oct-18 19:20 33.700993 -117.852764 208 519ft 112kts
11-Oct-18 19:21 33.678269 -117.867173 209 59ft 65kts
11-Oct-18 19:22 33.674504 -117.871072 207 59ft 21kts
11-Oct-18 19:23 33.672159 -117.873576 209 59ft 0kts

Navigation Log

Ident Type
Flight plan parsing failed, navigation log unavailable